Time;durP1;ratioP1;P1;durP2;ratioP2;P2;SDS_P1;SDS_P2;PMS_P1;PMS_P2;Temp;Humidity;BMP_temperature;BMP_pressure;BME280_temperature;BME280_humidity;BME280_pressure;Samples;Min_cycle;Max_cycle;Signal;HPM_P1;HPM_P2
2023/01/31 00:01:42;;;;;;;20.10;11.45;;;6.50;99.90;;;;;;5032628;28;20721;-79
2023/01/31 00:04:13;;;;;;;13.20;5.80;;;6.50;99.90;;;;;;5033226;28;20307;-79
2023/01/31 00:06:42;;;;;;;12.82;3.60;;;6.50;99.90;;;;;;5033026;28;20312;-80
2023/01/31 00:09:15;;;;;;;12.48;6.55;;;6.50;99.90;;;;;;5032950;28;20217;-76
2023/01/31 00:11:44;;;;;;;12.82;5.60;;;6.50;99.90;;;;;;5038856;28;20225;-79
2023/01/31 00:14:18;;;;;;;16.60;5.22;;;6.50;99.90;;;;;;5035357;28;20244;-75
2023/01/31 00:16:48;;;;;;;25.45;11.63;;;6.50;99.90;;;;;;5035977;28;20562;-79
2023/01/31 00:19:16;;;;;;;14.77;5.10;;;6.50;99.90;;;;;;5036851;28;20275;-78
2023/01/31 00:21:43;;;;;;;8.90;3.95;;;6.40;99.90;;;;;;5035535;28;20221;-78
2023/01/31 00:24:12;;;;;;;16.88;4.97;;;6.40;99.90;;;;;;5036439;28;20562;-76
2023/01/31 00:26:39;;;;;;;16.25;4.00;;;6.40;99.90;;;;;;5036272;28;20225;-77
2023/01/31 00:29:07;;;;;;;12.02;3.97;;;6.40;99.90;;;;;;5037318;28;20225;-80
2023/01/31 00:31:35;;;;;;;17.17;7.35;;;6.40;99.90;;;;;;5022776;28;20323;-77
2023/01/31 00:34:03;;;;;;;10.30;4.05;;;6.30;99.90;;;;;;4955082;28;20231;-77
2023/01/31 00:36:32;;;;;;;15.63;4.70;;;6.30;99.90;;;;;;4953521;28;20522;-77
2023/01/31 00:39:01;;;;;;;17.30;6.30;;;6.30;99.90;;;;;;4954927;28;20342;-79
2023/01/31 00:41:31;;;;;;;14.95;4.97;;;6.40;99.90;;;;;;4954910;28;20228;-75
2023/01/31 00:43:58;;;;;;;13.75;4.57;;;6.40;99.90;;;;;;4937877;28;20244;-76
2023/01/31 00:46:26;;;;;;;13.57;3.45;;;6.40;99.90;;;;;;4954321;28;20235;-79
2023/01/31 00:48:56;;;;;;;10.13;4.57;;;6.40;99.90;;;;;;4954350;28;21218;-82
2023/01/31 00:51:24;;;;;;;8.23;2.97;;;6.30;99.90;;;;;;4986703;28;20220;-77
2023/01/31 00:53:55;;;;;;;14.50;5.57;;;6.30;99.90;;;;;;4978879;28;20599;-77
2023/01/31 00:56:24;;;;;;;16.27;6.60;;;6.30;99.90;;;;;;4955058;28;20233;-80
2023/01/31 00:58:52;;;;;;;22.95;8.00;;;6.30;99.90;;;;;;4953184;28;20546;-77
2023/01/31 01:01:21;;;;;;;9.50;6.45;;;6.30;99.90;;;;;;4954870;28;20227;-79
2023/01/31 01:03:48;;;;;;;17.77;5.70;;;6.40;99.90;;;;;;4955561;28;20228;-79
2023/01/31 01:06:17;;;;;;;8.75;4.10;;;6.40;99.90;;;;;;4955850;28;20228;-76
2023/01/31 01:08:45;;;;;;;14.73;4.85;;;6.40;99.90;;;;;;4955095;28;20689;-79
2023/01/31 01:11:14;;;;;;;11.02;4.57;;;6.50;99.90;;;;;;4955180;28;20235;-76
2023/01/31 01:13:44;;;;;;;14.10;3.13;;;6.50;99.90;;;;;;4954449;28;20295;-76
2023/01/31 01:16:13;;;;;;;12.60;5.30;;;6.50;99.90;;;;;;4955116;28;20235;-78
2023/01/31 01:18:41;;;;;;;10.05;5.05;;;6.50;99.90;;;;;;4955082;28;20307;-78
2023/01/31 01:21:10;;;;;;;12.73;4.88;;;6.50;99.90;;;;;;4955404;28;20228;-80
2023/01/31 01:23:39;;;;;;;15.00;5.00;;;6.50;99.90;;;;;;4956987;28;20259;-79
2023/01/31 01:26:12;;;;;;;13.35;4.50;;;6.50;99.90;;;;;;4954440;28;20685;-75
2023/01/31 01:28:39;;;;;;;11.40;6.45;;;6.60;99.90;;;;;;4954290;28;20299;-78
2023/01/31 01:31:08;;;;;;;8.43;3.40;;;6.50;99.90;;;;;;4957971;28;20236;-78
2023/01/31 01:33:35;;;;;;;13.30;6.40;;;6.60;99.90;;;;;;4956999;28;20224;-75
2023/01/31 01:36:02;;;;;;;10.18;3.38;;;6.60;99.90;;;;;;4955735;28;20228;-78
2023/01/31 01:38:30;;;;;;;8.10;3.70;;;6.60;99.90;;;;;;4958361;28;20235;-78
2023/01/31 01:40:58;;;;;;;14.05;6.43;;;6.60;99.90;;;;;;4948010;28;20262;-78
2023/01/31 01:43:40;;;;;;;13.18;3.63;;;6.60;99.90;;;;;;4954511;28;20377;-78
2023/01/31 01:46:08;;;;;;;16.75;3.90;;;6.60;99.90;;;;;;4953513;28;20224;-77
2023/01/31 01:48:41;;;;;;;14.68;5.95;;;6.60;99.90;;;;;;4954224;28;20235;-78
2023/01/31 01:51:18;;;;;;;6.57;2.40;;;6.60;99.90;;;;;;4942592;28;20377;-78
2023/01/31 01:53:47;;;;;;;18.42;4.57;;;6.60;99.90;;;;;;4953445;28;20232;-78
2023/01/31 01:56:21;;;;;;;19.10;9.18;;;6.60;99.90;;;;;;4953153;28;20751;-76
2023/01/31 01:58:53;;;;;;;16.98;7.82;;;6.60;99.90;;;;;;4954223;28;20243;-79
2023/01/31 02:01:21;;;;;;;11.57;5.28;;;6.60;99.90;;;;;;4952796;28;20228;-79
2023/01/31 02:03:49;;;;;;;12.18;5.43;;;6.60;99.90;;;;;;4953443;28;20228;-79
2023/01/31 02:06:16;;;;;;;15.90;5.55;;;6.60;99.90;;;;;;4952408;28;20236;-78
2023/01/31 02:08:44;;;;;;;12.55;6.13;;;6.60;99.90;;;;;;4953338;28;20224;-77
2023/01/31 02:11:17;;;;;;;12.50;4.80;;;6.60;99.90;;;;;;4952486;28;20236;-80
2023/01/31 02:13:52;;;;;;;10.75;3.92;;;6.60;99.90;;;;;;4953857;28;20232;-79
2023/01/31 02:16:20;;;;;;;8.50;3.90;;;6.60;99.90;;;;;;4952328;28;20685;-77
2023/01/31 02:18:48;;;;;;;14.63;3.75;;;6.60;99.90;;;;;;4945133;28;20278;-77
2023/01/31 02:21:41;;;;;;;10.98;6.43;;;6.60;99.90;;;;;;4952133;28;20708;-78
2023/01/31 02:24:39;;;;;;;11.45;4.97;;;6.70;99.90;;;;;;4952547;28;20278;-76
2023/01/31 02:27:25;;;;;;;16.63;5.28;;;6.60;99.90;;;;;;4952134;28;20228;-76
2023/01/31 02:30:28;;;;;;;13.60;5.03;;;6.60;99.90;;;;;;4953251;28;20255;-76
2023/01/31 02:33:10;;;;;;;15.57;4.93;;;6.60;99.90;;;;;;4936656;28;20322;-78
2023/01/31 02:35:50;;;;;;;12.38;3.63;;;6.60;99.90;;;;;;4951561;28;20226;-79
2023/01/31 02:38:31;;;;;;;16.27;3.60;;;6.60;99.90;;;;;;4952994;28;20244;-76
2023/01/31 02:41:13;;;;;;;14.45;3.35;;;6.70;99.90;;;;;;4953049;28;20234;-76
2023/01/31 02:46:37;;;;;;;11.20;5.32;;;6.70;99.90;;;;;;4951604;28;20228;-79
2023/01/31 02:49:11;;;;;;;42.42;16.30;;;6.70;99.90;;;;;;4952892;28;20227;-78
2023/01/31 02:52:14;;;;;;;7.95;3.95;;;6.70;99.90;;;;;;4952311;28;20681;-78
2023/01/31 02:57:18;;;;;;;11.93;3.55;;;6.80;99.90;;;;;;4951694;28;20235;-78
2023/01/31 02:59:46;;;;;;;16.73;7.13;;;6.70;99.90;;;;;;4951207;28;20269;-77
2023/01/31 03:02:13;;;;;;;5.60;3.45;;;6.70;99.90;;;;;;4952524;28;20312;-78
2023/01/31 03:04:42;;;;;;;17.25;9.70;;;6.70;99.90;;;;;;4951021;28;20229;-78
2023/01/31 03:07:16;;;;;;;12.23;4.03;;;6.70;99.90;;;;;;4952569;28;20224;-78
2023/01/31 03:09:56;;;;;;;13.77;3.53;;;6.70;99.90;;;;;;4951883;28;20289;-78
2023/01/31 03:12:43;;;;;;;7.22;3.05;;;6.60;99.90;;;;;;4952477;28;20227;-77
2023/01/31 03:18:26;;;;;;;11.07;3.60;;;6.50;99.90;;;;;;4952260;28;20795;-78
2023/01/31 03:21:00;;;;;;;3.95;2.30;;;6.50;99.90;;;;;;4952357;28;20258;-76
2023/01/31 03:23:30;;;;;;;9.73;3.00;;;6.50;99.90;;;;;;4951277;28;20370;-79
2023/01/31 03:25:59;;;;;;;6.95;2.13;;;6.50;99.90;;;;;;4952270;28;20682;-76
2023/01/31 03:28:30;;;;;;;11.40;4.40;;;6.40;99.90;;;;;;4951598;28;20228;-76
2023/01/31 03:31:04;;;;;;;7.28;3.33;;;6.40;99.90;;;;;;4951871;28;20224;-76
2023/01/31 03:33:35;;;;;;;4.88;2.47;;;6.40;99.90;;;;;;4950875;28;20238;-76
2023/01/31 03:36:10;;;;;;;11.90;4.70;;;6.30;99.90;;;;;;4952292;28;20255;-76
2023/01/31 03:38:46;;;;;;;5.32;2.38;;;6.30;99.90;;;;;;4951777;28;20219;-76
2023/01/31 03:41:24;;;;;;;5.60;2.60;;;6.30;99.90;;;;;;4951254;28;20313;-79
2023/01/31 03:43:58;;;;;;;5.35;2.53;;;6.30;99.90;;;;;;4951618;28;20228;-79
2023/01/31 03:46:31;;;;;;;8.60;2.60;;;6.20;99.90;;;;;;4951726;28;20243;-79
2023/01/31 03:48:59;;;;;;;10.55;3.78;;;6.20;99.90;;;;;;4955334;28;20293;-76
2023/01/31 03:51:31;;;;;;;5.72;2.50;;;6.20;99.90;;;;;;4954352;28;20282;-76
2023/01/31 03:54:02;;;;;;;10.98;3.10;;;6.20;99.90;;;;;;4955300;28;20227;-76
2023/01/31 03:56:35;;;;;;;5.53;2.47;;;6.10;99.90;;;;;;4954786;28;20266;-78
2023/01/31 03:59:08;;;;;;;6.97;2.65;;;6.10;99.90;;;;;;4955208;28;20224;-79
2023/01/31 04:01:42;;;;;;;10.23;3.92;;;6.10;99.90;;;;;;4954659;28;20248;-76
2023/01/31 04:04:14;;;;;;;5.57;2.40;;;6.10;99.90;;;;;;4954980;28;20242;-79
2023/01/31 04:06:43;;;;;;;17.27;9.52;;;6.10;99.90;;;;;;4955223;28;20342;-76
2023/01/31 04:09:10;;;;;;;9.20;2.72;;;6.10;99.90;;;;;;4954612;28;20227;-76
2023/01/31 04:11:39;;;;;;;7.97;2.88;;;6.10;99.90;;;;;;4952693;28;20317;-76
2023/01/31 04:14:07;;;;;;;14.98;3.47;;;6.00;99.90;;;;;;4955350;28;20228;-79
2023/01/31 04:16:34;;;;;;;13.98;2.90;;;6.00;99.90;;;;;;4954444;28;20298;-79
2023/01/31 04:19:02;;;;;;;19.00;3.55;;;6.00;99.90;;;;;;4954248;28;20301;-76
2023/01/31 04:21:29;;;;;;;15.30;3.20;;;6.00;99.90;;;;;;4954671;28;20228;-79
2023/01/31 04:23:57;;;;;;;12.00;2.50;;;6.00;99.90;;;;;;4954954;28;20240;-76
2023/01/31 04:26:24;;;;;;;12.63;4.00;;;6.00;99.90;;;;;;4953608;28;20270;-77
2023/01/31 04:28:51;;;;;;;10.27;3.00;;;6.00;99.90;;;;;;4954959;28;20232;-76
2023/01/31 04:31:20;;;;;;;9.52;3.70;;;6.00;99.90;;;;;;4954903;28;20673;-77
2023/01/31 04:33:47;;;;;;;6.57;2.67;;;5.90;99.90;;;;;;4987354;28;20673;-76
2023/01/31 04:36:14;;;;;;;4.45;2.40;;;5.90;99.90;;;;;;4954928;28;20712;-79
2023/01/31 04:38:41;;;;;;;6.70;2.78;;;5.90;99.90;;;;;;4954113;28;20288;-77
2023/01/31 04:41:09;;;;;;;9.73;4.60;;;5.90;99.90;;;;;;4953669;28;20347;-76
2023/01/31 04:43:36;;;;;;;8.95;2.95;;;6.00;99.90;;;;;;4954132;28;20281;-76
2023/01/31 04:46:04;;;;;;;6.38;2.88;;;5.90;99.90;;;;;;4954933;28;20239;-76
2023/01/31 04:48:31;;;;;;;10.23;2.50;;;5.90;99.90;;;;;;4954062;28;20619;-79
2023/01/31 04:50:58;;;;;;;5.78;3.10;;;5.90;99.90;;;;;;4955213;28;20228;-79
2023/01/31 04:53:25;;;;;;;14.20;3.05;;;5.90;99.90;;;;;;4954504;28;20299;-79
2023/01/31 04:55:54;;;;;;;12.95;2.65;;;5.90;99.90;;;;;;4954815;28;20228;-79
2023/01/31 04:58:23;;;;;;;6.45;2.25;;;6.00;99.90;;;;;;4954329;28;20689;-79
2023/01/31 05:00:50;;;;;;;11.35;3.28;;;6.00;99.90;;;;;;4953803;28;20233;-77
2023/01/31 05:03:17;;;;;;;10.68;2.50;;;5.90;99.90;;;;;;4954351;28;20224;-76
2023/01/31 05:05:44;;;;;;;6.88;3.33;;;5.90;99.90;;;;;;4954065;28;20236;-76
2023/01/31 05:08:11;;;;;;;7.15;3.35;;;6.00;99.90;;;;;;4954114;28;20224;-79
2023/01/31 05:10:39;;;;;;;7.78;3.55;;;5.90;99.90;;;;;;4944369;28;20669;-76
2023/01/31 05:13:06;;;;;;;12.85;4.57;;;6.00;99.90;;;;;;4954216;28;20295;-79
2023/01/31 05:15:35;;;;;;;10.88;3.50;;;5.90;99.90;;;;;;4953898;28;20216;-78
2023/01/31 05:18:02;;;;;;;8.95;3.50;;;6.00;99.90;;;;;;4954175;28;20289;-79
2023/01/31 05:20:30;;;;;;;16.02;3.72;;;5.90;99.90;;;;;;4953706;28;20242;-79
2023/01/31 05:22:58;;;;;;;9.98;3.08;;;6.00;99.90;;;;;;4954127;28;20240;-79
2023/01/31 05:25:25;;;;;;;7.05;3.03;;;6.00;99.90;;;;;;4953957;28;20332;-79
2023/01/31 05:27:53;;;;;;;6.65;4.80;;;6.00;99.90;;;;;;4953481;28;20573;-79
2023/01/31 05:30:23;;;;;;;8.90;3.72;;;6.00;99.90;;;;;;4954034;28;20243;-79
2023/01/31 05:32:52;;;;;;;4.57;2.50;;;6.00;99.90;;;;;;4953879;28;20236;-79
2023/01/31 05:35:20;;;;;;;10.93;2.75;;;6.00;99.90;;;;;;4954527;28;20253;-80
2023/01/31 05:37:47;;;;;;;7.82;4.90;;;6.10;99.90;;;;;;4953569;28;20689;-79
2023/01/31 05:40:15;;;;;;;13.68;2.88;;;6.00;99.90;;;;;;4954050;28;20623;-76
2023/01/31 05:42:43;;;;;;;8.23;2.72;;;6.10;99.90;;;;;;4953877;28;20512;-79
2023/01/31 05:45:12;;;;;;;12.50;2.75;;;6.10;99.90;;;;;;4953472;28;20236;-80
2023/01/31 05:47:39;;;;;;;9.18;2.85;;;6.10;99.90;;;;;;4953554;28;20558;-79
2023/01/31 05:50:08;;;;;;;6.32;2.42;;;6.20;99.90;;;;;;4954176;28;20223;-79
2023/01/31 05:52:38;;;;;;;6.15;2.17;;;6.20;99.90;;;;;;4953578;28;20228;-79
2023/01/31 05:55:06;;;;;;;13.18;3.05;;;6.20;99.90;;;;;;4943932;28;20232;-77
2023/01/31 05:57:33;;;;;;;7.30;2.00;;;6.20;99.90;;;;;;4953787;28;20222;-79
2023/01/31 06:00:00;;;;;;;4.80;2.00;;;6.20;99.90;;;;;;4953007;28;20235;-78
2023/01/31 06:02:29;;;;;;;9.70;2.05;;;6.30;99.90;;;;;;4953717;28;20235;-76
2023/01/31 06:04:56;;;;;;;9.18;4.07;;;6.30;99.90;;;;;;4952856;28;20252;-76
2023/01/31 06:07:24;;;;;;;5.45;2.85;;;6.40;99.90;;;;;;4953544;28;20300;-76
2023/01/31 06:09:51;;;;;;;8.45;3.53;;;6.40;99.90;;;;;;4953154;28;20578;-76
2023/01/31 06:12:18;;;;;;;7.80;3.40;;;6.40;99.90;;;;;;4953057;28;20281;-76
2023/01/31 06:14:46;;;;;;;10.52;2.75;;;6.40;99.90;;;;;;4952773;28;20550;-76
2023/01/31 06:17:13;;;;;;;21.33;4.25;;;6.50;99.90;;;;;;4952957;28;20535;-76
2023/01/31 06:19:40;;;;;;;10.65;3.92;;;6.50;99.90;;;;;;4952887;28;20294;-77
2023/01/31 06:22:07;;;;;;;9.77;3.33;;;6.50;99.90;;;;;;4952985;28;20615;-76
2023/01/31 06:24:36;;;;;;;15.05;2.90;;;6.50;99.90;;;;;;4953194;28;20223;-79
2023/01/31 06:27:03;;;;;;;9.68;3.97;;;6.50;99.90;;;;;;4952753;28;20235;-80
2023/01/31 06:29:30;;;;;;;11.95;3.95;;;6.60;99.90;;;;;;4953354;28;20232;-79
2023/01/31 06:31:57;;;;;;;8.55;3.92;;;6.60;99.90;;;;;;4952960;28;20320;-79
2023/01/31 06:34:24;;;;;;;11.57;3.80;;;6.60;99.90;;;;;;4953699;28;20270;-76
2023/01/31 06:36:51;;;;;;;13.55;3.92;;;6.60;99.90;;;;;;4952288;28;20228;-77
2023/01/31 06:39:18;;;;;;;9.95;3.20;;;6.60;99.90;;;;;;4953072;28;20224;-77
2023/01/31 06:41:47;;;;;;;7.72;2.85;;;6.60;99.90;;;;;;4952322;28;20232;-76
2023/01/31 06:44:14;;;;;;;12.82;3.60;;;6.60;99.90;;;;;;4953006;28;20220;-80
2023/01/31 06:46:41;;;;;;;12.57;5.68;;;6.70;99.90;;;;;;4951113;28;20632;-79
2023/01/31 06:49:08;;;;;;;11.73;5.15;;;6.60;99.90;;;;;;4953306;28;20228;-77
2023/01/31 06:51:35;;;;;;;13.57;4.00;;;6.70;99.90;;;;;;4952780;28;20277;-77
2023/01/31 06:54:05;;;;;;;9.15;4.50;;;6.70;99.90;;;;;;4952426;28;20286;-77
2023/01/31 06:56:35;;;;;;;8.90;3.58;;;6.70;99.90;;;;;;4952828;28;20232;-79
2023/01/31 06:59:03;;;;;;;7.15;4.00;;;6.70;99.90;;;;;;4952630;28;20235;-77
2023/01/31 07:01:30;;;;;;;9.68;3.10;;;6.70;99.90;;;;;;4954662;28;20297;-77
2023/01/31 07:03:57;;;;;;;15.50;5.10;;;6.70;99.90;;;;;;4953433;28;20228;-80
2023/01/31 07:06:24;;;;;;;14.27;3.80;;;6.70;99.90;;;;;;4954995;28;20243;-81
2023/01/31 07:08:52;;;;;;;9.55;3.90;;;6.70;99.90;;;;;;4955641;28;20573;-80
2023/01/31 07:11:19;;;;;;;10.13;2.70;;;6.80;99.90;;;;;;4957766;28;20232;-80
2023/01/31 07:13:46;;;;;;;9.05;2.25;;;6.70;99.90;;;;;;4955573;28;20254;-77
2023/01/31 07:16:15;;;;;;;6.10;2.72;;;6.80;99.90;;;;;;4953189;28;20228;-74
2023/01/31 07:18:42;;;;;;;5.32;2.40;;;6.80;99.90;;;;;;4952791;28;20282;-76
2023/01/31 07:21:09;;;;;;;12.60;3.30;;;6.80;99.90;;;;;;4952427;28;20232;-78
2023/01/31 07:23:36;;;;;;;14.15;3.15;;;6.80;99.90;;;;;;4953270;28;20224;-79
2023/01/31 07:26:04;;;;;;;4.55;2.40;;;6.80;99.90;;;;;;4951927;28;20228;-76
2023/01/31 07:28:31;;;;;;;5.72;2.40;;;6.80;99.90;;;;;;4951871;28;20682;-76
2023/01/31 07:31:05;;;;;;;9.85;4.65;;;6.90;99.90;;;;;;4952139;28;20572;-78
2023/01/31 07:33:34;;;;;;;10.52;3.55;;;6.90;99.90;;;;;;4951681;28;20290;-76
2023/01/31 07:36:03;;;;;;;11.18;4.45;;;6.90;99.90;;;;;;4951582;28;20242;-76
2023/01/31 07:38:30;;;;;;;11.25;2.90;;;6.90;99.90;;;;;;4951582;28;20293;-78
2023/01/31 07:41:00;;;;;;;5.78;2.35;;;6.90;99.90;;;;;;4951654;28;20688;-78
2023/01/31 07:43:27;;;;;;;6.88;2.50;;;7.00;99.90;;;;;;4952650;28;20259;-78
2023/01/31 07:45:54;;;;;;;10.40;2.80;;;7.00;99.90;;;;;;4951903;28;20228;-78
2023/01/31 07:48:22;;;;;;;12.27;5.25;;;7.00;99.90;;;;;;4951710;28;20228;-78
2023/01/31 07:50:52;;;;;;;10.45;3.40;;;7.00;99.90;;;;;;4951502;28;20259;-79
2023/01/31 07:53:19;;;;;;;10.27;3.80;;;7.00;99.90;;;;;;4951548;28;20331;-80
2023/01/31 07:55:46;;;;;;;17.23;4.75;;;7.00;99.90;;;;;;4944084;28;20266;-79
2023/01/31 07:58:15;;;;;;;13.15;3.80;;;7.10;99.90;;;;;;4951532;28;20230;-79
2023/01/31 08:03:35;;;;;;;9.48;4.45;;;7.00;99.90;;;;;;4952476;28;20294;-79
2023/01/31 08:06:08;;;;;;;8.73;3.60;;;7.10;99.90;;;;;;4950932;28;20228;-79
2023/01/31 08:08:36;;;;;;;8.25;4.88;;;7.10;99.90;;;;;;4952065;28;20290;-79
2023/01/31 08:11:06;;;;;;;10.27;4.78;;;7.10;99.90;;;;;;4951448;28;20342;-77
2023/01/31 08:13:34;;;;;;;9.82;3.83;;;7.10;99.90;;;;;;4951948;28;20230;-79
2023/01/31 08:16:01;;;;;;;10.75;3.60;;;7.10;99.90;;;;;;4933645;28;20232;-79
2023/01/31 08:18:28;;;;;;;5.43;2.95;;;7.20;99.90;;;;;;4951028;28;20254;-79
2023/01/31 08:20:57;;;;;;;9.82;4.75;;;7.20;99.90;;;;;;4940333;28;20527;-79
2023/01/31 08:23:26;;;;;;;10.05;4.05;;;7.20;99.90;;;;;;4951315;28;20235;-78
2023/01/31 08:26:02;;;;;;;11.27;4.53;;;7.20;99.90;;;;;;4951007;28;20232;-78
2023/01/31 08:28:30;;;;;;;10.98;4.63;;;7.20;99.90;;;;;;4948306;28;20216;-76
2023/01/31 08:30:57;;;;;;;10.60;3.63;;;7.20;99.90;;;;;;4950462;28;20243;-79
2023/01/31 08:33:25;;;;;;;12.77;5.60;;;7.20;99.90;;;;;;4951789;28;20381;-75
2023/01/31 08:35:56;;;;;;;8.35;4.05;;;7.20;99.90;;;;;;4953562;28;20606;-75
2023/01/31 08:38:27;;;;;;;14.90;6.20;;;7.20;99.90;;;;;;4930217;28;20279;-76
2023/01/31 08:40:58;;;;;;;10.18;5.50;;;7.20;99.90;;;;;;4946858;28;20804;-75
2023/01/31 08:43:25;;;;;;;9.50;5.30;;;7.20;99.90;;;;;;4954157;28;20224;-77
2023/01/31 08:45:55;;;;;;;7.25;3.53;;;7.20;99.90;;;;;;4944216;28;20228;-76
2023/01/31 08:48:22;;;;;;;8.27;4.95;;;7.20;99.90;;;;;;5020716;28;20232;-76
2023/01/31 08:50:49;;;;;;;8.35;4.85;;;7.30;99.90;;;;;;4964095;28;20382;-76
2023/01/31 08:53:16;;;;;;;8.30;3.67;;;7.30;99.90;;;;;;4951599;28;20260;-77
2023/01/31 08:55:44;;;;;;;11.80;4.68;;;7.30;99.90;;;;;;5055687;28;20260;-79
2023/01/31 08:58:11;;;;;;;13.80;7.18;;;7.30;99.90;;;;;;5055106;28;20286;-79
2023/01/31 09:00:38;;;;;;;10.20;4.63;;;7.30;99.90;;;;;;4994675;28;20660;-77
2023/01/31 09:03:05;;;;;;;7.35;3.17;;;7.30;99.90;;;;;;4943000;28;20237;-79
2023/01/31 09:05:33;;;;;;;6.63;3.20;;;7.30;99.90;;;;;;5019131;28;20225;-79
2023/01/31 09:08:01;;;;;;;9.27;3.65;;;7.30;99.90;;;;;;5044890;28;20235;-76
2023/01/31 09:10:28;;;;;;;10.82;5.22;;;7.30;99.90;;;;;;4994464;28;20234;-76
2023/01/31 09:12:58;;;;;;;8.60;4.97;;;7.30;99.90;;;;;;4953822;28;20236;-76
2023/01/31 09:15:26;;;;;;;12.18;5.47;;;7.40;99.90;;;;;;4953488;28;20629;-76
2023/01/31 09:17:53;;;;;;;10.90;4.53;;;7.40;99.90;;;;;;4954013;28;20311;-76
2023/01/31 09:20:20;;;;;;;28.30;9.57;;;7.40;99.90;;;;;;4952514;28;20321;-76
2023/01/31 09:22:48;;;;;;;12.80;3.30;;;7.40;99.90;;;;;;4986071;28;20317;-76
2023/01/31 09:25:16;;;;;;;8.70;3.50;;;7.40;99.90;;;;;;4952957;28;20224;-79
2023/01/31 09:27:42;;;;;;;10.13;4.35;;;7.40;99.90;;;;;;4953557;28;20247;-78
2023/01/31 09:30:15;;;;;;;8.90;4.70;;;7.40;99.90;;;;;;4953801;28;20228;-76
2023/01/31 09:32:43;;;;;;;14.52;4.40;;;7.40;99.90;;;;;;4969226;28;20652;-78
2023/01/31 09:35:10;;;;;;;6.05;4.05;;;7.40;99.90;;;;;;5054661;28;20722;-78
2023/01/31 09:37:38;;;;;;;10.38;3.42;;;7.50;99.90;;;;;;5044775;28;20670;-79
2023/01/31 09:40:06;;;;;;;10.60;4.32;;;7.50;99.90;;;;;;5046525;28;20695;-76
2023/01/31 09:42:37;;;;;;;10.38;4.57;;;7.50;99.90;;;;;;4969301;28;20244;-79
2023/01/31 09:45:08;;;;;;;14.32;4.07;;;7.50;99.90;;;;;;5045774;28;20259;-78
2023/01/31 09:47:42;;;;;;;7.85;3.40;;;7.60;99.90;;;;;;5054054;28;20278;-79
2023/01/31 09:50:20;;;;;;;8.45;3.20;;;7.60;99.90;;;;;;5054661;28;20228;-76
2023/01/31 09:52:47;;;;;;;6.78;2.70;;;7.70;99.90;;;;;;5053927;28;20231;-77
2023/01/31 09:55:19;;;;;;;9.68;3.65;;;7.70;99.90;;;;;;5053442;28;20669;-77
2023/01/31 09:57:56;;;;;;;10.65;2.95;;;7.70;99.90;;;;;;5051570;28;20228;-76
2023/01/31 10:00:29;;;;;;;9.57;3.05;;;7.80;99.90;;;;;;5052700;28;20228;-78
2023/01/31 10:03:17;;;;;;;9.80;4.93;;;7.80;99.90;;;;;;5051446;28;20221;-78
2023/01/31 10:05:52;;;;;;;7.97;2.95;;;7.90;99.90;;;;;;5053645;28;21699;-76
2023/01/31 10:08:34;;;;;;;11.40;3.38;;;7.90;99.90;;;;;;5054684;28;20278;-76
2023/01/31 10:11:02;;;;;;;12.35;4.45;;;7.90;99.90;;;;;;5054121;28;20300;-76
2023/01/31 10:13:35;;;;;;;7.50;3.92;;;7.90;99.90;;;;;;5053759;28;20224;-78
2023/01/31 10:16:13;;;;;;;12.93;4.25;;;8.00;99.90;;;;;;5054274;28;20235;-76
2023/01/31 10:18:49;;;;;;;17.10;6.32;;;8.00;99.90;;;;;;5052687;28;20248;-76
2023/01/31 10:21:19;;;;;;;17.02;5.45;;;8.00;99.90;;;;;;5054315;28;20543;-76
2023/01/31 10:23:51;;;;;;;18.70;4.47;;;8.00;99.90;;;;;;5052833;28;20290;-79
2023/01/31 10:26:23;;;;;;;15.05;4.38;;;8.00;99.90;;;;;;5054239;28;20304;-79
2023/01/31 10:28:58;;;;;;;12.18;4.28;;;8.00;99.90;;;;;;5053402;28;20216;-79
2023/01/31 10:31:31;;;;;;;13.00;4.03;;;7.90;99.90;;;;;;5053717;28;20259;-78
2023/01/31 10:34:07;;;;;;;10.27;5.57;;;8.00;99.90;;;;;;5053343;28;20244;-77
2023/01/31 10:36:39;;;;;;;12.13;4.55;;;8.00;99.90;;;;;;5053557;28;20302;-77
2023/01/31 10:39:15;;;;;;;12.60;4.80;;;8.00;99.90;;;;;;5052417;28;20224;-79
2023/01/31 10:41:51;;;;;;;14.75;3.90;;;8.00;99.90;;;;;;5053485;28;20704;-76
2023/01/31 10:44:24;;;;;;;8.70;3.80;;;8.10;99.90;;;;;;5053589;28;20226;-79
2023/01/31 10:46:54;;;;;;;8.20;3.70;;;8.10;99.90;;;;;;5053014;28;20221;-79
2023/01/31 10:49:24;;;;;;;10.10;3.90;;;8.10;99.90;;;;;;5054095;28;20639;-76
2023/01/31 10:52:07;;;;;;;10.25;3.75;;;8.10;99.90;;;;;;5051517;28;20634;-76
2023/01/31 10:54:46;;;;;;;12.82;3.65;;;8.00;99.90;;;;;;5052457;28;20248;-76
2023/01/31 10:57:13;;;;;;;11.02;4.45;;;7.90;99.90;;;;;;5053178;28;20247;-75
2023/01/31 10:59:44;;;;;;;10.80;4.03;;;8.00;99.90;;;;;;5052392;28;20298;-76
2023/01/31 11:02:19;;;;;;;10.00;4.15;;;7.90;99.90;;;;;;5053391;28;20220;-78
2023/01/31 11:04:50;;;;;;;10.13;3.72;;;7.90;99.90;;;;;;5052818;28;20370;-78
2023/01/31 11:07:17;;;;;;;7.60;3.03;;;7.90;99.90;;;;;;5052356;28;20235;-78
2023/01/31 11:09:50;;;;;;;9.35;4.53;;;8.00;99.90;;;;;;5050713;28;20274;-76
2023/01/31 11:12:18;;;;;;;10.60;6.03;;;8.00;99.90;;;;;;5052927;28;20308;-78
2023/01/31 11:14:45;;;;;;;10.35;3.40;;;8.00;99.90;;;;;;5052371;28;20673;-76
2023/01/31 11:17:18;;;;;;;12.00;5.57;;;8.10;99.90;;;;;;5053275;28;20294;-79
2023/01/31 11:19:49;;;;;;;12.68;5.40;;;8.10;99.90;;;;;;5049993;28;20233;-76
2023/01/31 11:22:25;;;;;;;9.15;5.47;;;8.00;99.90;;;;;;5049634;28;20315;-78
2023/01/31 11:24:54;;;;;;;13.63;4.85;;;8.10;99.90;;;;;;5035657;28;20603;-75
2023/01/31 11:27:26;;;;;;;11.07;5.43;;;8.10;99.90;;;;;;5052869;28;20259;-75
2023/01/31 11:29:56;;;;;;;14.35;6.55;;;8.10;99.90;;;;;;5051157;28;20670;-76
2023/01/31 11:32:28;;;;;;;8.65;4.47;;;8.10;99.90;;;;;;5051561;28;20227;-75
2023/01/31 11:34:59;;;;;;;23.42;5.90;;;8.20;99.90;;;;;;5052815;28;20315;-78
2023/01/31 11:37:26;;;;;;;13.85;5.38;;;8.20;99.90;;;;;;5003616;28;20227;-76
2023/01/31 11:39:58;;;;;;;12.55;5.20;;;8.20;99.90;;;;;;5051346;28;20242;-76
2023/01/31 11:42:25;;;;;;;10.18;4.88;;;8.20;99.90;;;;;;5052659;28;20294;-76
2023/01/31 11:44:58;;;;;;;11.82;6.35;;;8.30;99.90;;;;;;5051844;28;20251;-76
2023/01/31 11:47:32;;;;;;;12.32;5.82;;;8.30;99.90;;;;;;5052195;28;20225;-77
2023/01/31 11:50:03;;;;;;;12.35;5.60;;;8.30;99.90;;;;;;5051762;28;20274;-80
2023/01/31 11:52:32;;;;;;;8.07;3.90;;;8.30;99.90;;;;;;5051522;28;20220;-77
2023/01/31 11:55:04;;;;;;;9.15;4.38;;;8.30;99.90;;;;;;5052232;28;20242;-79
2023/01/31 11:57:34;;;;;;;6.80;3.60;;;8.30;99.90;;;;;;5052799;28;20232;-80
2023/01/31 12:00:06;;;;;;;17.55;5.72;;;8.30;99.90;;;;;;5051509;28;20293;-77
2023/01/31 12:02:38;;;;;;;15.00;6.07;;;8.30;99.90;;;;;;5041276;28;20229;-77
2023/01/31 12:05:12;;;;;;;14.50;5.60;;;8.20;99.90;;;;;;5051497;28;20639;-79
2023/01/31 12:07:45;;;;;;;12.85;6.30;;;8.20;99.90;;;;;;5052686;28;20227;-79
2023/01/31 12:10:34;;;;;;;10.75;5.55;;;8.20;99.90;;;;;;5055091;28;20246;-80
2023/01/31 12:13:03;;;;;;;15.07;5.43;;;8.20;99.90;;;;;;5047559;28;20251;-77
2023/01/31 12:15:32;;;;;;;8.82;4.82;;;8.10;99.90;;;;;;5046768;28;20295;-78
2023/01/31 12:18:03;;;;;;;8.93;4.80;;;8.10;99.90;;;;;;5036099;28;20236;-76
2023/01/31 12:20:42;;;;;;;12.93;6.93;;;8.10;99.90;;;;;;5036596;28;20229;-77
2023/01/31 12:23:26;;;;;;;13.98;8.70;;;8.20;99.90;;;;;;5036256;28;20225;-79
2023/01/31 12:26:04;;;;;;;15.70;7.18;;;8.20;99.90;;;;;;5035913;28;20233;-79
2023/01/31 12:28:47;;;;;;;18.83;7.10;;;8.10;99.90;;;;;;5036279;28;20606;-79
2023/01/31 12:31:32;;;;;;;10.73;6.32;;;8.20;99.90;;;;;;5046364;28;20298;-78
2023/01/31 12:34:14;;;;;;;18.58;7.40;;;8.10;99.90;;;;;;5055279;28;20263;-77
2023/01/31 12:36:54;;;;;;;9.60;5.15;;;8.10;99.90;;;;;;5026818;28;20238;-77
2023/01/31 12:39:45;;;;;;;11.68;4.90;;;8.00;99.90;;;;;;4972888;28;20687;-77
2023/01/31 12:42:24;;;;;;;8.80;5.68;;;8.00;99.90;;;;;;4974567;28;20228;-80
2023/01/31 12:45:05;;;;;;;9.95;6.00;;;8.00;99.90;;;;;;4974491;28;20239;-77
2023/01/31 12:47:57;;;;;;;12.07;5.20;;;8.00;99.90;;;;;;4973572;28;20710;-80
2023/01/31 12:50:32;;;;;;;12.43;5.80;;;7.90;99.90;;;;;;4973751;28;20240;-80
2023/01/31 12:53:32;;;;;;;8.88;4.32;;;7.80;99.90;;;;;;4974097;28;20267;-78
2023/01/31 12:56:15;;;;;;;7.75;4.60;;;7.80;99.90;;;;;;4973979;28;20281;-77
2023/01/31 12:58:51;;;;;;;10.80;5.22;;;7.80;99.90;;;;;;4974033;28;20259;-76
2023/01/31 13:01:24;;;;;;;10.77;5.75;;;7.80;99.90;;;;;;4994744;28;20225;-80
2023/01/31 13:04:07;;;;;;;16.52;5.85;;;7.70;99.90;;;;;;5057832;28;20239;-75
2023/01/31 13:06:39;;;;;;;17.30;7.70;;;7.70;99.90;;;;;;5056843;28;20561;-76
2023/01/31 13:09:13;;;;;;;11.75;6.35;;;7.70;99.90;;;;;;5054849;28;20225;-76
2023/01/31 13:11:47;;;;;;;13.70;6.88;;;7.70;99.90;;;;;;5054655;28;20232;-75
2023/01/31 13:14:18;;;;;;;11.13;5.85;;;7.70;99.90;;;;;;5055604;28;20231;-78
2023/01/31 13:16:48;;;;;;;11.82;6.40;;;7.70;99.90;;;;;;5055117;28;20224;-75
2023/01/31 13:19:22;;;;;;;19.95;10.02;;;7.70;99.90;;;;;;5054154;28;20216;-79
2023/01/31 13:21:53;;;;;;;16.52;8.95;;;7.60;99.90;;;;;;5054682;28;20283;-79